createdAt,value
2022-11-22T00:00:29.766Z,6.90
2022-11-22T00:04:31.839Z,7.00
2022-11-22T00:08:33.798Z,7.00
2022-11-22T00:12:35.492Z,7.00
2022-11-22T00:16:37.183Z,7.00
2022-11-22T00:20:38.895Z,7.10
2022-11-22T00:24:40.795Z,7.10
2022-11-22T00:28:42.475Z,7.10
2022-11-22T00:32:44.397Z,7.10
2022-11-22T00:36:46.072Z,7.10
2022-11-22T00:40:47.766Z,7.00
2022-11-22T00:44:49.533Z,7.10
2022-11-22T00:48:52.387Z,7.10
2022-11-22T00:52:54.205Z,7.00
2022-11-22T00:56:55.957Z,7.00
2022-11-22T01:00:57.748Z,7.00
2022-11-22T01:04:59.958Z,7.00
2022-11-22T01:09:01.862Z,7.00
2022-11-22T01:13:04.208Z,7.00
2022-11-22T01:17:06.989Z,6.90
2022-11-22T01:21:08.952Z,7.00
2022-11-22T01:25:11.086Z,6.90
2022-11-22T01:29:12.786Z,6.90
2022-11-22T01:33:18.814Z,6.90
2022-11-22T01:37:21.845Z,6.90
2022-11-22T01:41:23.705Z,6.90
2022-11-22T01:45:32.015Z,6.80
2022-11-22T01:49:35.794Z,6.80
2022-11-22T01:53:38.466Z,6.80
2022-11-22T01:57:41.440Z,6.70
2022-11-22T02:01:43.750Z,6.80
2022-11-22T02:05:47.103Z,6.70
2022-11-22T02:09:51.112Z,6.70
2022-11-22T02:13:55.742Z,6.70
2022-11-22T02:17:57.847Z,6.70
2022-11-22T02:22:02.157Z,6.70
2022-11-22T02:26:04.630Z,6.70
2022-11-22T02:30:07.018Z,6.60
2022-11-22T02:34:13.854Z,6.70
2022-11-22T02:38:25.474Z,6.60
2022-11-22T02:42:28.683Z,6.60
2022-11-22T02:46:31.189Z,6.60
2022-11-22T02:50:32.998Z,6.50
2022-11-22T02:54:34.637Z,6.50
2022-11-22T02:58:36.895Z,6.50
2022-11-22T03:02:38.727Z,6.50
2022-11-22T03:06:40.370Z,6.50
2022-11-22T03:10:42.270Z,6.50
2022-11-22T03:14:44.140Z,6.50
2022-11-22T03:18:45.947Z,6.50
2022-11-22T03:22:47.671Z,6.50
2022-11-22T03:26:57.055Z,6.40
2022-11-22T03:30:59.367Z,6.40
2022-11-22T03:35:01.045Z,6.40
2022-11-22T03:39:02.880Z,6.30
2022-11-22T03:43:04.632Z,6.20
2022-11-22T03:47:06.506Z,6.20
2022-11-22T03:51:08.191Z,6.10
2022-11-22T03:55:10.338Z,6.10
2022-11-22T03:59:12.422Z,6.10
2022-11-22T04:03:16.116Z,6.20
2022-11-22T04:07:18.211Z,6.20
2022-11-22T04:11:19.976Z,6.20
2022-11-22T04:15:21.662Z,6.10
2022-11-22T04:19:23.461Z,6.10
2022-11-22T04:23:30.880Z,6.00
2022-11-22T04:27:35.272Z,6.00
2022-11-22T04:31:56.047Z,6.00
2022-11-22T04:35:58.003Z,6.00
2022-11-22T04:39:59.716Z,6.00
2022-11-22T04:44:20.708Z,5.90
2022-11-22T04:48:22.471Z,5.90
2022-11-22T04:52:42.881Z,5.90
2022-11-22T04:56:44.758Z,5.80
2022-11-22T05:00:46.551Z,5.80
2022-11-22T05:04:50.829Z,5.70
2022-11-22T05:08:52.919Z,5.70
2022-11-22T05:12:55.115Z,5.60
2022-11-22T05:16:59.081Z,5.70
2022-11-22T05:21:11.293Z,5.60
2022-11-22T05:25:13.065Z,5.60
2022-11-22T05:29:14.829Z,5.60
2022-11-22T05:33:17.463Z,5.60
2022-11-22T05:37:19.213Z,5.60
2022-11-22T05:41:21.075Z,5.60
2022-11-22T05:45:23.176Z,5.60
2022-11-22T05:49:25.185Z,5.60
2022-11-22T05:53:33.334Z,5.60
2022-11-22T05:57:35.691Z,5.60
2022-11-22T06:01:39.977Z,5.60
2022-11-22T06:05:41.729Z,5.60
2022-11-22T06:09:43.436Z,5.60
2022-11-22T06:13:45.754Z,5.60
2022-11-22T06:17:47.745Z,5.50
2022-11-22T06:21:49.477Z,5.50
2022-11-22T06:30:20.271Z,5.50
2022-11-22T06:34:22.203Z,5.60
2022-11-22T06:38:23.905Z,5.60
2022-11-22T06:42:31.063Z,5.70
2022-11-22T06:46:33.051Z,5.60
2022-11-22T06:50:36.527Z,5.60
2022-11-22T06:54:38.694Z,5.60
2022-11-22T06:58:40.629Z,5.60
2022-11-22T07:02:42.382Z,5.60
2022-11-22T07:06:48.226Z,5.50
2022-11-22T07:10:50.414Z,5.50
2022-11-22T07:14:52.225Z,5.50
2022-11-22T07:18:55.790Z,5.50
2022-11-22T07:22:57.494Z,5.40
2022-11-22T07:26:59.355Z,5.50
2022-11-22T07:31:02.050Z,5.40
2022-11-22T07:35:04.263Z,5.40
2022-11-22T07:39:06.125Z,5.40
2022-11-22T07:43:08.515Z,5.40
2022-11-22T07:47:10.280Z,5.30
2022-11-22T07:51:12.215Z,5.30
2022-11-22T07:55:14.558Z,5.30
2022-11-22T07:59:17.889Z,5.30
2022-11-22T08:03:27.170Z,5.40
2022-11-22T08:07:30.797Z,5.40
2022-11-22T08:11:32.766Z,5.40
2022-11-22T08:15:34.712Z,5.50
2022-11-22T08:19:36.726Z,5.50
2022-11-22T08:23:39.382Z,5.60
2022-11-22T08:27:41.617Z,5.70
2022-11-22T08:31:45.613Z,5.80
2022-11-22T08:35:49.583Z,5.90
2022-11-22T08:39:53.707Z,6.10
2022-11-22T08:43:55.914Z,6.00
2022-11-22T08:47:58.285Z,6.10
2022-11-22T08:52:00.200Z,6.10
2022-11-22T08:56:02.647Z,6.20
2022-11-22T09:00:05.800Z,6.30
2022-11-22T09:04:07.639Z,6.30
2022-11-22T09:08:28.887Z,6.40
2022-11-22T09:12:34.411Z,6.50
2022-11-22T09:16:36.280Z,6.40
2022-11-22T09:20:38.336Z,6.40
2022-11-22T09:24:40.044Z,6.40
2022-11-22T09:28:42.096Z,6.40
2022-11-22T09:32:45.300Z,6.40
2022-11-22T09:36:47.777Z,6.50
2022-11-22T09:40:49.609Z,6.60
2022-11-22T09:45:08.012Z,6.70
2022-11-22T09:49:22.336Z,6.80
2022-11-22T09:53:34.844Z,6.80
2022-11-22T09:57:47.629Z,7.10
2022-11-22T10:02:11.599Z,7.00
2022-11-22T10:06:22.971Z,7.20
2022-11-22T10:10:32.809Z,7.30
2022-11-22T10:14:34.879Z,7.20
2022-11-22T10:18:39.632Z,7.30
2022-11-22T10:22:41.711Z,7.20
2022-11-22T10:26:43.950Z,7.30
2022-11-22T10:30:49.583Z,7.40
2022-11-22T10:35:16.388Z,7.50
2022-11-22T10:39:22.324Z,7.50
2022-11-22T10:43:44.873Z,7.80
2022-11-22T10:52:25.688Z,7.90
2022-11-22T10:56:40.956Z,8.00
2022-11-22T11:00:47.756Z,7.90
2022-11-22T11:04:50.795Z,7.70
2022-11-22T11:13:28.717Z,8.00
2022-11-22T11:17:33.661Z,7.90
2022-11-22T11:21:35.855Z,8.10
2022-11-22T11:25:40.623Z,8.20
2022-11-22T11:30:00.806Z,8.10
2022-11-22T11:34:15.782Z,8.20
2022-11-22T11:38:36.490Z,8.20
2022-11-22T11:42:38.295Z,8.10
2022-11-22T11:46:41.071Z,8.10
2022-11-22T11:50:43.152Z,8.20
2022-11-22T11:54:45.636Z,8.10
2022-11-22T11:58:56.389Z,8.10
2022-11-22T12:03:06.253Z,8.30
2022-11-22T12:07:23.122Z,8.20
2022-11-22T12:11:31.072Z,8.20
2022-11-22T12:15:36.400Z,8.10
2022-11-22T12:20:01.362Z,8.10
2022-11-22T12:24:34.816Z,8.30
2022-11-22T12:28:29.680Z,8.10
2022-11-22T12:32:35.005Z,8.00
2022-11-22T12:36:42.167Z,8.00
2022-11-22T12:40:45.500Z,8.10
2022-11-22T12:45:08.149Z,7.90
2022-11-22T12:49:24.614Z,8.00
2022-11-22T12:53:32.205Z,8.00
2022-11-22T12:57:44.775Z,7.90
2022-11-22T13:01:57.086Z,8.00
2022-11-22T13:06:04.546Z,7.90
2022-11-22T13:10:19.156Z,7.80
2022-11-22T13:14:30.973Z,7.80
2022-11-22T13:18:34.213Z,7.70
2022-11-22T13:22:42.595Z,7.70
2022-11-22T13:27:03.182Z,7.80
2022-11-22T13:31:11.872Z,7.80
2022-11-22T13:35:13.926Z,7.70
2022-11-22T13:39:19.622Z,7.60
2022-11-22T13:43:23.364Z,7.60
2022-11-22T13:47:44.113Z,7.60
2022-11-22T13:51:50.741Z,7.60
2022-11-22T13:55:52.747Z,7.70
2022-11-22T14:00:16.827Z,7.70
2022-11-22T14:04:24.958Z,7.70
2022-11-22T14:08:37.221Z,7.60
2022-11-22T14:13:05.973Z,7.60
2022-11-22T14:17:41.757Z,7.50
2022-11-22T14:22:04.855Z,7.50
2022-11-22T14:26:30.371Z,7.50
2022-11-22T14:30:49.070Z,7.40
2022-11-22T14:35:03.208Z,7.40
2022-11-22T14:39:28.084Z,7.40
2022-11-22T14:43:37.257Z,7.40
2022-11-22T14:47:41.174Z,7.40
2022-11-22T14:51:43.886Z,7.40
2022-11-22T14:55:47.385Z,7.30
2022-11-22T14:59:55.833Z,7.30
2022-11-22T15:09:16.272Z,7.20
2022-11-22T15:09:17.857Z,7.30
2022-11-22T15:13:21.520Z,7.30
2022-11-22T16:01:19.077Z,7.20
2022-11-22T16:06:06.774Z,7.20
2022-11-22T16:09:57.856Z,7.20
2022-11-22T16:13:59.682Z,7.10
2022-11-22T16:18:10.825Z,7.10
2022-11-22T16:22:29.703Z,7.10
2022-11-22T16:26:31.540Z,7.10
2022-11-22T16:30:46.183Z,7.10
2022-11-22T16:34:58.999Z,7.10
2022-11-22T16:43:36.255Z,7.10
2022-11-22T16:47:37.971Z,7.10
2022-11-22T16:51:48.362Z,7.10
2022-11-22T17:00:08.841Z,7.10
2022-11-22T17:04:41.003Z,7.10
2022-11-22T17:08:43.215Z,7.10
2022-11-22T17:17:01.103Z,7.20
2022-11-22T17:21:04.750Z,7.20
2022-11-22T17:25:10.682Z,7.30
2022-11-22T17:29:29.012Z,7.30
2022-11-22T17:33:35.668Z,7.30
2022-11-22T17:37:38.951Z,7.30
2022-11-22T17:41:41.283Z,7.30
2022-11-22T17:45:43.291Z,7.40
2022-11-22T17:49:44.982Z,7.40
2022-11-22T17:53:47.078Z,7.40
2022-11-22T17:57:53.075Z,7.40
2022-11-22T18:01:58.709Z,7.30
2022-11-22T18:06:01.821Z,7.30
2022-11-22T18:10:03.889Z,7.30
2022-11-22T18:14:05.725Z,7.20
2022-11-22T18:18:07.432Z,7.20
2022-11-22T18:22:11.496Z,7.20
2022-11-22T18:30:35.819Z,7.20
2022-11-22T18:34:38.190Z,7.30
2022-11-22T18:38:40.066Z,7.30
2022-11-22T18:42:42.430Z,7.20
2022-11-22T18:46:44.237Z,7.20
2022-11-22T18:50:46.600Z,7.30
2022-11-22T18:54:48.797Z,7.30
2022-11-22T18:58:51.909Z,7.30
2022-11-22T19:02:55.538Z,7.30
2022-11-22T19:06:58.707Z,7.40
2022-11-22T19:11:00.516Z,7.40
2022-11-22T19:15:02.336Z,7.50
2022-11-22T19:19:04.436Z,7.60
2022-11-22T19:23:07.845Z,7.60
2022-11-22T19:27:10.380Z,7.60
2022-11-22T19:31:13.556Z,7.60
2022-11-22T19:35:15.912Z,7.60
2022-11-22T19:39:19.942Z,7.50
2022-11-22T19:43:22.571Z,7.50
2022-11-22T19:47:24.645Z,7.50
2022-11-22T19:51:27.267Z,7.50
2022-11-22T19:55:29.313Z,7.40
2022-11-22T19:59:34.119Z,7.40
2022-11-22T20:03:37.375Z,7.40
2022-11-22T20:07:39.401Z,7.40
2022-11-22T20:11:46.554Z,7.40
2022-11-22T20:15:56.699Z,7.60
2022-11-22T20:19:58.895Z,7.60
2022-11-22T20:24:00.854Z,7.50
2022-11-22T20:28:02.933Z,7.60
2022-11-22T20:32:14.726Z,7.60
2022-11-22T20:36:18.098Z,7.60
2022-11-22T20:40:20.949Z,7.60
2022-11-22T20:44:25.717Z,7.60
2022-11-22T20:48:28.336Z,7.60
2022-11-22T20:56:45.985Z,7.60
2022-11-22T21:00:50.054Z,7.60
2022-11-22T21:09:11.155Z,7.60
2022-11-22T21:13:13.461Z,7.60
2022-11-22T21:17:41.888Z,7.60
2022-11-22T21:21:42.763Z,7.60
2022-11-22T21:25:46.950Z,7.60
2022-11-22T21:29:50.428Z,7.70
2022-11-22T21:33:53.212Z,7.60
2022-11-22T21:42:11.931Z,7.70
2022-11-22T21:46:13.802Z,7.70
2022-11-22T21:50:21.770Z,7.70
2022-11-22T21:54:23.737Z,7.70
2022-11-22T21:58:26.257Z,7.70
2022-11-22T22:02:30.839Z,7.70
2022-11-22T22:06:32.848Z,7.70
2022-11-22T22:10:34.927Z,7.80
2022-11-22T22:14:37.363Z,7.80
2022-11-22T22:18:39.351Z,8.00
2022-11-22T22:22:41.391Z,8.00
2022-11-22T22:26:43.262Z,8.00
2022-11-22T22:30:45.301Z,8.10
2022-11-22T22:34:47.259Z,8.00
2022-11-22T22:38:51.537Z,8.00
2022-11-22T22:42:57.702Z,8.00
2022-11-22T22:46:59.575Z,8.00
2022-11-22T22:51:21.010Z,8.00
2022-11-22T22:55:24.146Z,8.00
2022-11-22T22:59:25.972Z,8.00
2022-11-22T23:03:28.895Z,8.00
2022-11-22T23:07:30.749Z,7.90
2022-11-22T23:11:51.903Z,7.90
2022-11-22T23:15:58.338Z,7.80
2022-11-22T23:20:00.662Z,7.90
2022-11-22T23:24:02.995Z,7.90
2022-11-22T23:28:05.010Z,7.90
2022-11-22T23:32:07.110Z,7.80
2022-11-22T23:36:10.519Z,7.90
2022-11-22T23:40:12.612Z,7.90
2022-11-22T23:44:15.813Z,7.80
2022-11-22T23:48:18.936Z,7.90
2022-11-22T23:52:20.818Z,7.90
2022-11-22T23:56:22.812Z,7.90
